Time;durP1;ratioP1;P1;durP2;ratioP2;P2;SDS_P1;SDS_P2;PMS_P1;PMS_P2;Temp;Humidity;BMP_temperature;BMP_pressure;BME280_temperature;BME280_humidity;BME280_pressure;Samples;Min_cycle;Max_cycle;Signal;HPM_P1;HPM_P2
2022/08/28 05:53:22;;;;;;;2.90;0.68;;;17.40;1.00;;;;;;6203942;22;20031;-94
2022/08/28 05:56:45;;;;;;;1.60;0.73;;;17.40;1.00;;;;;;6219561;23;20031;-92
2022/08/28 05:59:16;;;;;;;6.60;1.77;;;17.40;1.00;;;;;;6192318;23;20104;-93
2022/08/28 06:01:49;;;;;;;4.10;1.30;;;17.40;1.00;;;;;;6216345;23;20020;-93
2022/08/28 06:04:24;;;;;;;3.88;1.38;;;17.40;1.00;;;;;;6222728;23;20075;-94
2022/08/28 06:07:16;;;;;;;2.85;0.90;;;17.50;1.00;;;;;;6195148;23;20407;-95
2022/08/28 06:10:44;;;;;;;4.55;0.85;;;17.50;1.00;;;;;;6219708;23;20067;-93
2022/08/28 06:13:32;;;;;;;4.97;1.60;;;17.50;1.00;;;;;;6215737;23;20021;-93
2022/08/28 06:16:25;;;;;;;9.25;1.80;;;17.50;1.00;;;;;;6191882;23;20499;-95
2022/08/28 06:19:38;;;;;;;2.67;1.13;;;17.50;1.00;;;;;;6212362;23;20024;-94
2022/08/28 06:23:01;;;;;;;5.47;1.42;;;17.50;1.00;;;;;;6203143;23;20250;-93
2022/08/28 06:46:23;;;;;;;3.95;1.20;;;17.70;1.00;;;;;;6213381;22;20040;-90
2022/08/28 06:48:51;;;;;;;4.75;1.15;;;17.70;1.00;;;;;;6221155;23;20020;-90
2022/08/28 06:51:44;;;;;;;5.97;1.10;;;17.80;1.00;;;;;;6246400;23;20044;-95
2022/08/28 06:54:11;;;;;;;1.63;0.80;;;17.80;1.00;;;;;;6245229;23;20020;-90
2022/08/28 06:56:41;;;;;;;6.28;2.05;;;17.80;1.00;;;;;;6246930;23;20363;-90
2022/08/28 07:06:55;;;;;;;4.78;1.13;;;17.90;1.00;;;;;;6237683;22;20039;-88
2022/08/28 07:09:23;;;;;;;4.47;1.00;;;17.90;1.00;;;;;;6220045;23;20024;-88
2022/08/28 07:11:51;;;;;;;4.65;1.10;;;17.90;1.00;;;;;;6246019;23;20026;-88
2022/08/28 07:14:18;;;;;;;5.72;0.80;;;17.90;1.00;;;;;;6247002;22;20016;-88
2022/08/28 07:16:45;;;;;;;3.88;1.23;;;18.00;1.00;;;;;;6245553;23;20039;-88
2022/08/28 07:19:15;;;;;;;7.85;1.20;;;18.00;1.00;;;;;;6245210;23;20016;-88
2022/08/28 07:21:45;;;;;;;2.40;1.05;;;18.00;1.00;;;;;;6246807;22;20016;-88
2022/08/28 07:24:14;;;;;;;4.68;1.02;;;18.00;1.00;;;;;;6246338;22;20012;-87
2022/08/28 07:26:43;;;;;;;3.47;0.73;;;18.10;1.00;;;;;;6245333;23;20039;-88
2022/08/28 07:29:11;;;;;;;7.93;1.40;;;18.10;1.00;;;;;;6245486;23;20383;-87
2022/08/28 07:31:48;;;;;;;5.40;1.33;;;18.10;1.00;;;;;;6220250;23;20447;-87
2022/08/28 07:34:17;;;;;;;2.58;1.10;;;18.10;1.00;;;;;;6245578;23;20383;-88
2022/08/28 07:36:47;;;;;;;2.40;1.20;;;18.20;1.00;;;;;;6245470;23;20020;-88
2022/08/28 07:39:14;;;;;;;1.92;0.82;;;18.20;1.00;;;;;;6246600;22;20015;-88
2022/08/28 07:41:42;;;;;;;3.78;1.02;;;18.20;1.00;;;;;;6220313;23;20020;-88
2022/08/28 07:47:02;;;;;;;3.28;0.95;;;18.20;1.00;;;;;;6245265;22;20318;-88
2022/08/28 07:49:32;;;;;;;3.03;1.25;;;18.30;1.00;;;;;;6219645;23;20318;-90
2022/08/28 07:52:00;;;;;;;2.95;1.27;;;18.20;1.00;;;;;;6244352;23;20016;-88
2022/08/28 07:54:27;;;;;;;2.40;1.02;;;18.20;1.00;;;;;;6245046;23;20086;-89
2022/08/28 07:56:55;;;;;;;2.42;0.90;;;18.20;1.00;;;;;;6245564;23;20408;-88
2022/08/28 07:59:22;;;;;;;4.15;1.00;;;18.30;1.00;;;;;;6245640;23;20024;-88
2022/08/28 08:01:53;;;;;;;3.83;0.70;;;18.30;1.00;;;;;;6244980;23;20102;-89
2022/08/28 08:04:22;;;;;;;5.20;1.10;;;18.30;1.00;;;;;;6246281;23;20023;-88
2022/08/28 08:06:54;;;;;;;4.03;0.95;;;18.30;1.00;;;;;;6239184;22;20003;-88
2022/08/28 08:09:24;;;;;;;5.15;1.00;;;18.40;1.00;;;;;;6273763;22;20000;-87
2022/08/28 08:20:59;;;;;;;1.58;0.77;;;18.50;1.00;;;;;;6220788;23;20075;-88
2022/08/28 08:23:45;;;;;;;2.90;1.00;;;18.50;1.00;;;;;;6193326;23;20017;-88
2022/08/28 08:26:33;;;;;;;3.72;1.20;;;18.50;1.00;;;;;;6193400;23;20059;-90
2022/08/28 09:06:01;;;;;;;2.00;0.73;;;19.00;1.00;;;;;;6169458;22;20025;31
2022/08/28 09:08:39;;;;;;;4.22;0.80;;;19.00;1.00;;;;;;6102170;23;20073;-87
2022/08/28 09:11:34;;;;;;;4.07;1.00;;;19.10;1.00;;;;;;6102817;23;20029;-88
2022/08/28 09:14:10;;;;;;;4.38;0.93;;;19.20;1.00;;;;;;6102401;23;20072;-88
2022/08/28 09:16:40;;;;;;;1.65;0.70;;;19.20;1.00;;;;;;6103047;23;20101;-88
2022/08/28 09:19:13;;;;;;;4.28;1.67;;;19.20;1.00;;;;;;6127914;23;20096;-87
2022/08/28 09:21:41;;;;;;;;;;;19.20;1.00;;;;;;6103541;23;20021;-88
2022/08/28 09:24:18;;;;;;;2.15;0.95;;;19.20;1.00;;;;;;6102913;23;20343;-88
2022/08/28 09:26:59;;;;;;;4.43;2.30;;;19.20;1.00;;;;;;6102869;23;20096;-88
2022/08/28 09:29:30;;;;;;;1.17;0.70;;;19.20;1.00;;;;;;6103380;23;20431;-88
2022/08/28 09:32:37;;;;;;;4.75;1.20;;;19.30;1.00;;;;;;6078903;23;20014;-87
2022/08/28 10:58:27;;;;;;;3.15;0.90;;;20.30;1.00;;;;;;6187294;22;20024;31
2022/08/28 11:01:08;;;;;;;1.58;1.08;;;20.30;1.00;;;;;;6159359;23;20002;-88
2022/08/28 11:03:49;;;;;;;3.80;0.93;;;20.40;1.00;;;;;;6170396;23;20104;-88
2022/08/28 11:11:11;;;;;;;2.78;0.90;;;20.50;1.00;;;;;;6108681;23;20017;-90
2022/08/28 11:13:58;;;;;;;8.18;0.80;;;20.40;1.00;;;;;;6126140;23;20018;-90
2022/08/28 11:16:31;;;;;;;5.45;0.95;;;20.50;1.00;;;;;;6128031;23;20202;-91
2022/08/28 11:47:38;;;;;;;2.00;0.80;;;20.90;1.00;;;;;;6189682;22;20058;-88
2022/08/28 12:23:28;;;;;;;6.15;0.85;;;21.20;1.00;;;;;;6240497;22;20043;-88
2022/08/28 12:26:11;;;;;;;8.45;1.80;;;21.30;1.00;;;;;;6253173;22;20007;-87
2022/08/28 12:28:38;;;;;;;11.83;2.03;;;21.60;1.00;;;;;;6251565;22;20040;-87
2022/08/28 12:32:10;;;;;;;5.20;1.25;;;21.70;1.00;;;;;;6251835;22;20012;-86
2022/08/28 12:34:34;;;;;;;5.40;1.13;;;21.60;1.00;;;;;;6251954;22;20065;-86
2022/08/28 13:36:51;;;;;;;2.92;0.73;;;23.30;1.00;;;;;;6256294;22;20035;-88
2022/08/28 14:42:00;;;;;;;1.08;0.70;;;25.60;1.00;;;;;;6231525;22;20082;-91
2022/08/28 14:44:45;;;;;;;3.72;0.77;;;25.60;1.00;;;;;;6222512;23;20024;-89
2022/08/28 14:47:20;;;;;;;3.00;0.80;;;25.60;1.00;;;;;;6221700;23;20039;-92
2022/08/28 14:49:55;;;;;;;2.15;0.95;;;25.80;1.00;;;;;;6246682;23;20488;-91
2022/08/28 14:56:12;;;;;;;;;;;26.10;1.00;;;;;;6246830;22;20017;-92
2022/08/28 14:58:46;;;;;;;1.15;0.50;;;26.10;1.00;;;;;;6246208;23;20289;-86
2022/08/28 15:01:39;;;;;;;2.42;0.70;;;26.10;1.00;;;;;;6247896;22;20074;-87
2022/08/28 15:04:13;;;;;;;1.48;0.50;;;26.20;1.00;;;;;;6240530;23;20016;-88
2022/08/28 15:06:44;;;;;;;1.58;0.85;;;26.00;1.00;;;;;;6245771;23;20406;-86
2022/08/28 15:09:12;;;;;;;2.55;0.50;;;25.80;1.00;;;;;;6246522;23;20016;-87
2022/08/28 15:11:41;;;;;;;1.20;0.60;;;26.10;1.00;;;;;;6247109;22;20321;-87
2022/08/28 15:14:10;;;;;;;1.85;0.68;;;25.80;1.00;;;;;;6221212;23;20020;-88
2022/08/28 15:16:44;;;;;;;1.50;0.60;;;25.90;1.00;;;;;;6246207;23;20091;-88
2022/08/28 15:19:14;;;;;;;3.78;0.60;;;26.00;1.00;;;;;;6245752;23;20062;-88
2022/08/28 15:21:49;;;;;;;3.85;0.80;;;25.70;1.00;;;;;;6245828;23;20099;-89
2022/08/28 15:24:20;;;;;;;1.60;0.50;;;25.70;1.00;;;;;;6245425;23;20024;-88
2022/08/28 15:26:52;;;;;;;1.13;0.60;;;25.70;1.00;;;;;;6248488;23;20012;-88
2022/08/28 15:29:25;;;;;;;1.77;0.73;;;25.70;1.00;;;;;;6246235;23;20016;-88
2022/08/28 15:32:23;;;;;;;2.08;0.90;;;25.60;1.00;;;;;;6246497;23;20099;-88
2022/08/28 15:35:38;;;;;;;3.17;0.90;;;25.70;1.00;;;;;;6219458;23;20035;-88
2022/08/28 15:38:24;;;;;;;2.85;0.70;;;25.90;1.00;;;;;;6221928;23;20444;-89
2022/08/28 15:44:25;;;;;;;;;;;;;;;;;;;;;
2022/08/28 16:02:59;;;;;;;3.28;0.82;;;26.10;1.00;;;;;;6246444;23;20023;-89
2022/08/28 16:06:12;;;;;;;1.88;0.85;;;25.60;1.00;;;;;;6245736;23;20020;-89
2022/08/28 16:08:46;;;;;;;1.05;0.52;;;25.70;1.00;;;;;;6246301;23;20488;-88
2022/08/28 16:11:28;;;;;;;2.03;0.67;;;25.50;1.00;;;;;;6218374;23;20360;-87
2022/08/28 16:14:49;;;;;;;2.58;0.80;;;25.40;1.00;;;;;;6248054;23;20078;-90
2022/08/28 16:22:36;;;;;;;2.33;0.93;;;25.10;1.00;;;;;;6182790;23;20039;-86
2022/08/28 16:25:45;;;;;;;1.95;0.60;;;25.10;1.00;;;;;;6156343;23;20113;-87
2022/08/28 16:28:19;;;;;;;2.63;0.75;;;24.90;1.00;;;;;;6131877;23;20020;-88
2022/08/28 16:43:07;;;;;;;1.90;0.50;;;24.20;1.00;;;;;;5868910;24;20026;-87
2022/08/28 16:46:02;;;;;;;1.88;0.68;;;24.20;1.00;;;;;;5919530;23;20050;-87
2022/08/28 16:49:56;;;;;;;1.45;0.82;;;23.90;1.00;;;;;;6014468;23;20019;-90
2022/08/28 16:52:54;;;;;;;1.38;0.55;;;24.00;1.00;;;;;;6006140;23;20135;-89
2022/08/28 16:55:39;;;;;;;3.63;0.88;;;23.90;1.00;;;;;;5994254;23;20019;-88
2022/08/28 17:02:23;;;;;;;1.90;0.90;;;23.80;1.00;;;;;;6039064;23;20329;-88
2022/08/28 17:05:08;;;;;;;1.25;0.75;;;23.70;1.00;;;;;;6019152;23;20031;-88
2022/08/28 17:07:39;;;;;;;2.13;0.77;;;23.80;1.00;;;;;;6039714;23;20080;-89
2022/08/28 17:10:10;;;;;;;2.90;0.85;;;23.70;1.00;;;;;;6016354;23;20019;-92
2022/08/28 17:12:47;;;;;;;6.95;0.88;;;23.80;1.00;;;;;;6039701;23;20363;-90
2022/08/28 17:15:28;;;;;;;1.63;0.95;;;23.70;1.00;;;;;;6040016;23;20026;-89
2022/08/28 17:18:05;;;;;;;2.00;0.68;;;23.50;1.00;;;;;;6039493;23;20023;-91
2022/08/28 17:27:35;;;;;;;1.92;0.80;;;23.30;1.00;;;;;;6157149;23;20025;-89
2022/08/28 17:30:34;;;;;;;1.73;0.95;;;23.30;1.00;;;;;;6110593;23;20450;-89
2022/08/28 17:33:46;;;;;;;2.00;0.80;;;23.30;1.00;;;;;;6139354;23;20337;-90
2022/08/28 17:36:19;;;;;;;;;;;23.30;1.00;;;;;;6102687;23;20021;-87
2022/08/28 17:46:50;;;;;;;4.65;1.05;;;23.00;1.00;;;;;;6128115;23;20018;-89
2022/08/28 17:49:21;;;;;;;4.90;1.30;;;22.70;1.00;;;;;;6102574;23;20014;-89
2022/08/28 17:52:05;;;;;;;1.10;0.80;;;22.80;1.00;;;;;;6106030;23;20064;-87
2022/08/28 17:55:32;;;;;;;2.72;0.63;;;22.80;1.00;;;;;;6102782;23;20040;-89
2022/08/28 17:58:38;;;;;;;2.95;0.77;;;22.70;1.00;;;;;;6106651;23;20350;-89
2022/08/28 18:01:30;;;;;;;2.40;0.85;;;22.70;1.00;;;;;;6100249;23;20018;-90
2022/08/28 18:04:08;;;;;;;1.60;0.57;;;22.50;1.00;;;;;;6124899;23;20021;-87
2022/08/28 18:07:03;;;;;;;2.92;1.05;;;22.40;1.00;;;;;;6102150;23;20073;-90
2022/08/28 18:09:41;;;;;;;1.60;0.60;;;22.40;1.00;;;;;;6126603;23;20046;-89
2022/08/28 18:12:14;;;;;;;3.63;1.00;;;22.30;1.00;;;;;;6128156;23;20064;-91
2022/08/28 18:14:46;;;;;;;2.67;0.98;;;22.20;1.00;;;;;;6126928;23;20014;-88
2022/08/28 18:17:20;;;;;;;1.70;1.00;;;21.90;1.00;;;;;;6103872;23;20435;-88
2022/08/28 18:19:51;;;;;;;2.13;0.95;;;21.70;1.00;;;;;;6102156;23;20025;-87
2022/08/28 18:22:26;;;;;;;4.18;0.98;;;21.60;1.00;;;;;;6101664;23;20025;-90
2022/08/28 18:25:40;;;;;;;1.75;0.47;;;21.90;1.00;;;;;;6111160;23;20026;-89
2022/08/28 18:28:28;;;;;;;3.25;0.70;;;21.90;1.00;;;;;;6156069;23;20024;-88
2022/08/28 18:31:53;;;;;;;3.17;0.88;;;21.90;1.00;;;;;;6152295;23;20022;-90
2022/08/28 18:34:43;;;;;;;2.30;0.68;;;21.90;1.00;;;;;;6124599;23;20022;-90
2022/08/28 18:37:20;;;;;;;4.15;0.80;;;21.90;1.00;;;;;;6158089;23;20040;-88
2022/08/28 18:40:05;;;;;;;3.50;0.90;;;21.90;1.00;;;;;;6135235;23;20022;-93
